Aviation Digital Data Service (ADDS)

Output produced by METARs form (0539 UTC 19 February 2019)
found at http://www.aviationweather.gov/metar/data/
 
METAR text: EKVG 190520Z AUTO 33019KT 9999NDV -RA FEW012/// SCT017/// 02/M01 Q1003 RMK BKN015/// WIND SKEID 33021G33KT 300V360
Conditions at: EKVG (SORVAAG/VAGAR , DK) observed 0520 UTC 19 February 2019
Temperature: 2.0°C (36°F)
Dewpoint: -1.0°C (30°F) [RH = 80%]
Pressure (altimeter): 29.62 inches Hg (1003.0 mb)
Winds: from the NNW (330 degrees) at 22 MPH (19 knots; 9.8 m/s)
Visibility: missing
Ceiling: at least 12,000 feet AGL
Clouds: few clouds at 1200 feet AGL
scattered clouds at 1700 feet AGL
Weather: -RA  (light rain)

METAR text: EKVG 190450Z AUTO 32020KT 9999NDV -FZRA BKN013/// 02/00 Q1003 RMK BKN015/// WIND SKEID 33021G36KT 300V010
Conditions at: EKVG (SORVAAG/VAGAR , DK) observed 0450 UTC 19 February 2019
Temperature: 2.0°C (36°F)
Dewpoint: 0.0°C (32°F) [RH = 87%]
Pressure (altimeter): 29.62 inches Hg (1003.0 mb)
Winds: from the NW (320 degrees) at 23 MPH (20 knots; 10.3 m/s)
Visibility: missing
Ceiling: 1300 feet AGL
Clouds: broken clouds at 1300 feet AGL
Weather: -FZRA  (light freezing rain)

METAR text: EKVG 190420Z AUTO 31020KT 9999NDV -SHRA BKN019/// 02/M00 Q1003 RMK BKN017/// WIND SKEID 32022G41KT 280V360
Conditions at: EKVG (SORVAAG/VAGAR , DK) observed 0420 UTC 19 February 2019
Temperature: 2.0°C (36°F)
Dewpoint: 0.0°C (32°F) [RH = 87%]
Pressure (altimeter): 29.62 inches Hg (1003.0 mb)
Winds: from the NW (310 degrees) at 23 MPH (20 knots; 10.3 m/s)
Visibility: missing
Ceiling: 1900 feet AGL
Clouds: broken clouds at 1900 feet AGL
Weather: -SHRA  (light rain showers)

METAR text: EKVG 190350Z AUTO 31020KT 9999NDV -SHRA BKN020/// 02/M00 Q1002 RMK OVC018/// WIND SKEID 32020G32KT
Conditions at: EKVG (SORVAAG/VAGAR , DK) observed 0350 UTC 19 February 2019
Temperature: 2.0°C (36°F)
Dewpoint: 0.0°C (32°F) [RH = 87%]
Pressure (altimeter): 29.59 inches Hg (1002.0 mb)
Winds: from the NW (310 degrees) at 23 MPH (20 knots; 10.3 m/s)
Visibility: missing
Ceiling: 2000 feet AGL
Clouds: broken clouds at 2000 feet AGL
Weather: -SHRA  (light rain showers)

METAR text: EKVG 190320Z AUTO 31020KT 9999NDV -RA BKN019/// 02/M01 Q1002 RMK OVC020/// WIND SKEID 32023G35KT 290V350
Conditions at: EKVG (SORVAAG/VAGAR , DK) observed 0320 UTC 19 February 2019
Temperature: 2.0°C (36°F)
Dewpoint: -1.0°C (30°F) [RH = 80%]
Pressure (altimeter): 29.59 inches Hg (1002.0 mb)
Winds: from the NW (310 degrees) at 23 MPH (20 knots; 10.3 m/s)
Visibility: missing
Ceiling: 1900 feet AGL
Clouds: broken clouds at 1900 feet AGL
Weather: -RA  (light rain)

METAR text: EKVG 190250Z AUTO 32019KT 9999NDV -RA BKN022/// 02/M01 Q1002 RMK OVC024/// WIND SKEID 33024G38KT
Conditions at: EKVG (SORVAAG/VAGAR , DK) observed 0250 UTC 19 February 2019
Temperature: 2.0°C (36°F)
Dewpoint: -1.0°C (30°F) [RH = 80%]
Pressure (altimeter): 29.59 inches Hg (1002.0 mb)
Winds: from the NW (320 degrees) at 22 MPH (19 knots; 9.8 m/s)
Visibility: missing
Ceiling: 2200 feet AGL
Clouds: broken clouds at 2200 feet AGL
Weather: -RA  (light rain)

METAR text: EKVG 190220Z AUTO 32020KT 9999NDV OVC026/// 02/M02 Q1001 RMK OVC026/// WIND SKEID 33028G46KT
Conditions at: EKVG (SORVAAG/VAGAR , DK) observed 0220 UTC 19 February 2019
Temperature: 2.0°C (36°F)
Dewpoint: -2.0°C (28°F) [RH = 75%]
Pressure (altimeter): 29.56 inches Hg (1001.0 mb)
Winds: from the NW (320 degrees) at 23 MPH (20 knots; 10.3 m/s)
Visibility: missing
Ceiling: 2600 feet AGL
Clouds: overcast cloud deck at 2600 feet AGL
Weather: no significant weather observed at this time

METAR text: EKVG 190150Z AUTO 32019KT 9999NDV OVC025/// 02/M02 Q1001 RMK BKN026/// WIND SKEID 32031G48KT
Conditions at: EKVG (SORVAAG/VAGAR , DK) observed 0150 UTC 19 February 2019
Temperature: 2.0°C (36°F)
Dewpoint: -2.0°C (28°F) [RH = 75%]
Pressure (altimeter): 29.56 inches Hg (1001.0 mb)
Winds: from the NW (320 degrees) at 22 MPH (19 knots; 9.8 m/s)
Visibility: missing
Ceiling: 2500 feet AGL
Clouds: overcast cloud deck at 2500 feet AGL
Weather: no significant weather observed at this time

METAR text: EKVG 190120Z AUTO 33018KT 9999NDV OVC027/// 02/M02 Q1000 RMK BKN027/// WIND SKEID 33023G37KT
Conditions at: EKVG (SORVAAG/VAGAR , DK) observed 0120 UTC 19 February 2019
Temperature: 2.0°C (36°F)
Dewpoint: -2.0°C (28°F) [RH = 75%]
Pressure (altimeter): 29.53 inches Hg (1000.0 mb)
Winds: from the NNW (330 degrees) at 21 MPH (18 knots; 9.3 m/s)
Visibility: missing
Ceiling: 2700 feet AGL
Clouds: overcast cloud deck at 2700 feet AGL
Weather: no significant weather observed at this time

METAR text: EKVG 190050Z AUTO 33019KT 9999NDV BKN023/// 02/M03 Q1000 RMK BKN026/// WIND SKEID 33021G40KT
Conditions at: EKVG (SORVAAG/VAGAR , DK) observed 0050 UTC 19 February 2019
Temperature: 2.0°C (36°F)
Dewpoint: -3.0°C (27°F) [RH = 69%]
Pressure (altimeter): 29.53 inches Hg (1000.0 mb)
Winds: from the NNW (330 degrees) at 22 MPH (19 knots; 9.8 m/s)
Visibility: missing
Ceiling: 2300 feet AGL
Clouds: broken clouds at 2300 feet AGL
Weather: no significant weather observed at this time

METAR text: EKVG 190020Z AUTO 32020KT 9999NDV -SHRA BKN023/// 02/M02 Q1000 RMK BKN023/// WIND SKEID 32023G44KT
Conditions at: EKVG (SORVAAG/VAGAR , DK) observed 0020 UTC 19 February 2019
Temperature: 2.0°C (36°F)
Dewpoint: -2.0°C (28°F) [RH = 75%]
Pressure (altimeter): 29.53 inches Hg (1000.0 mb)
Winds: from the NW (320 degrees) at 23 MPH (20 knots; 10.3 m/s)
Visibility: missing
Ceiling: 2300 feet AGL
Clouds: broken clouds at 2300 feet AGL
Weather: -SHRA  (light rain showers)

METAR text: EKVG 182350Z AUTO 32020KT 9999NDV -SHRA BKN023/// 02/M02 Q0999 RMK BKN026/// WIND SKEID 32025G45KT 290V360
Conditions at: EKVG (SORVAAG/VAGAR , DK) observed 2350 UTC 18 February 2019
Temperature: 2.0°C (36°F)
Dewpoint: -2.0°C (28°F) [RH = 75%]
Pressure (altimeter): 29.50 inches Hg (999.0 mb)
Winds: from the NW (320 degrees) at 23 MPH (20 knots; 10.3 m/s)
Visibility: missing
Ceiling: 2300 feet AGL
Clouds: broken clouds at 2300 feet AGL
Weather: -SHRA  (light rain showers)

METAR text: EKVG 182320Z AUTO 33021KT 9999NDV -SHRA BKN019/// 02/M01 Q0999 RMK BKN022/// WIND SKEID 32026G45KT
Conditions at: EKVG (SORVAAG/VAGAR , DK) observed 2320 UTC 18 February 2019
Temperature: 2.0°C (36°F)
Dewpoint: -1.0°C (30°F) [RH = 80%]
Pressure (altimeter): 29.50 inches Hg (999.0 mb)
Winds: from the NNW (330 degrees) at 24 MPH (21 knots; 10.8 m/s)
Visibility: missing
Ceiling: 1900 feet AGL
Clouds: broken clouds at 1900 feet AGL
Weather: -SHRA  (light rain showers)

METAR text: EKVG 182250Z AUTO 33021KT 5000NDV -SHRA BKN013/// 02/00 Q0998 RMK OVC016/// WIND SKEID 33023G35KT 300V010
Conditions at: EKVG (SORVAAG/VAGAR , DK) observed 2250 UTC 18 February 2019
Temperature: 2.0°C (36°F)
Dewpoint: 0.0°C (32°F) [RH = 87%]
Pressure (altimeter): 29.47 inches Hg (998.0 mb)
Winds: from the NNW (330 degrees) at 24 MPH (21 knots; 10.8 m/s)
Visibility: missing
Ceiling: 1300 feet AGL
Clouds: broken clouds at 1300 feet AGL
Weather: -SHRA  (light rain showers)

METAR text: EKVG 182220Z AUTO 33023KT 9000NDV -SHRA BKN014/// 03/00 Q0998 RMK BKN014/// WIND SKEID 33023G42KT 290V030
Conditions at: EKVG (SORVAAG/VAGAR , DK) observed 2220 UTC 18 February 2019
Temperature: 3.0°C (37°F)
Dewpoint: 0.0°C (32°F) [RH = 81%]
Pressure (altimeter): 29.47 inches Hg (998.0 mb)
Winds: from the NNW (330 degrees) at 26 MPH (23 knots; 11.8 m/s)
Visibility: missing
Ceiling: 1400 feet AGL
Clouds: broken clouds at 1400 feet AGL
Weather: -SHRA  (light rain showers)

METAR text: EKVG 182150Z AUTO 34022KT 6000NDV -SHRA BKN015/// 03/00 Q0997 RMK BKN011/// WIND SKEID 35020G35KT 290V030
Conditions at: EKVG (SORVAAG/VAGAR , DK) observed 2150 UTC 18 February 2019
Temperature: 3.0°C (37°F)
Dewpoint: 0.0°C (32°F) [RH = 81%]
Pressure (altimeter): 29.44 inches Hg (997.0 mb)
Winds: from the NNW (340 degrees) at 25 MPH (22 knots; 11.3 m/s)
Visibility: missing
Ceiling: 1500 feet AGL
Clouds: broken clouds at 1500 feet AGL
Weather: -SHRA  (light rain showers)

METAR text: EKVG 182120Z AUTO 33022KT 9999NDV -RA BKN014/// 03/00 Q0996 RMK BKN014/// WIND SKEID 33019G32KT 300V020
Conditions at: EKVG (SORVAAG/VAGAR , DK) observed 2120 UTC 18 February 2019
Temperature: 3.0°C (37°F)
Dewpoint: 0.0°C (32°F) [RH = 81%]
Pressure (altimeter): 29.41 inches Hg (996.0 mb)
Winds: from the NNW (330 degrees) at 25 MPH (22 knots; 11.3 m/s)
Visibility: missing
Ceiling: 1400 feet AGL
Clouds: broken clouds at 1400 feet AGL
Weather: -RA  (light rain)

METAR text: EKVG 182050Z AUTO 34020KT 9999NDV -RA BKN017/// 03/00 Q0995 RMK BKN013/// WIND SKEID 34026G45KT 290V030
Conditions at: EKVG (SORVAAG/VAGAR , DK) observed 2050 UTC 18 February 2019
Temperature: 3.0°C (37°F)
Dewpoint: 0.0°C (32°F) [RH = 81%]
Pressure (altimeter): 29.38 inches Hg (995.0 mb)
Winds: from the NNW (340 degrees) at 23 MPH (20 knots; 10.3 m/s)
Visibility: missing
Ceiling: 1700 feet AGL
Clouds: broken clouds at 1700 feet AGL
Weather: -RA  (light rain)

METAR text: EKVG 182020Z AUTO 34020KT 9999NDV -RA BKN013/// 03/00 Q0995 RMK OVC011/// WIND SKEID 34021G37KT 290V030
Conditions at: EKVG (SORVAAG/VAGAR , DK) observed 2020 UTC 18 February 2019
Temperature: 3.0°C (37°F)
Dewpoint: 0.0°C (32°F) [RH = 81%]
Pressure (altimeter): 29.38 inches Hg (995.0 mb)
Winds: from the NNW (340 degrees) at 23 MPH (20 knots; 10.3 m/s)
Visibility: missing
Ceiling: 1300 feet AGL
Clouds: broken clouds at 1300 feet AGL
Weather: -RA  (light rain)

METAR text: EKVG 181950Z AUTO 34022KT 5000NDV -RA BKN013/// 03/01 Q0994 RMK OVC010/// WIND SKEID 35028G47KT
Conditions at: EKVG (SORVAAG/VAGAR , DK) observed 1950 UTC 18 February 2019
Temperature: 3.0°C (37°F)
Dewpoint: 1.0°C (34°F) [RH = 87%]
Pressure (altimeter): 29.35 inches Hg (994.0 mb)
Winds: from the NNW (340 degrees) at 25 MPH (22 knots; 11.3 m/s)
Visibility: missing
Ceiling: 1300 feet AGL
Clouds: broken clouds at 1300 feet AGL
Weather: -RA  (light rain)

METAR text: EKVG 181920Z AUTO 33022KT 5000NDV -SHRA BKN012/// 04/02 Q0993 RMK OVC010/// WIND SKEID 35021G41KT 320V020
Conditions at: EKVG (SORVAAG/VAGAR , DK) observed 1920 UTC 18 February 2019
Temperature: 4.0°C (39°F)
Dewpoint: 2.0°C (36°F) [RH = 87%]
Pressure (altimeter): 29.32 inches Hg (993.0 mb)
Winds: from the NNW (330 degrees) at 25 MPH (22 knots; 11.3 m/s)
Visibility: missing
Ceiling: 1200 feet AGL
Clouds: broken clouds at 1200 feet AGL
Weather: -SHRA  (light rain showers)

METAR text: EKVG 181850Z AUTO 33020KT 7000NDV -SHRA BKN012/// 04/02 Q0992 RMK OVC011/// WIND SKEID 33024G45KT 300V010
Conditions at: EKVG (SORVAAG/VAGAR , DK) observed 1850 UTC 18 February 2019
Temperature: 4.0°C (39°F)
Dewpoint: 2.0°C (36°F) [RH = 87%]
Pressure (altimeter): 29.29 inches Hg (992.0 mb)
Winds: from the NNW (330 degrees) at 23 MPH (20 knots; 10.3 m/s)
Visibility: missing
Ceiling: 1200 feet AGL
Clouds: broken clouds at 1200 feet AGL
Weather: -SHRA  (light rain showers)

METAR text: EKVG 181820Z AUTO 32021KT 9000NDV -SHRA BKN011/// BKN046/// 04/02 Q0992 RMK OVC012/// WIND SKEID 33025G42KT
Conditions at: EKVG (SORVAAG/VAGAR , DK) observed 1820 UTC 18 February 2019
Temperature: 4.0°C (39°F)
Dewpoint: 2.0°C (36°F) [RH = 87%]
Pressure (altimeter): 29.29 inches Hg (992.0 mb)
Winds: from the NW (320 degrees) at 24 MPH (21 knots; 10.8 m/s)
Visibility: missing
Ceiling: 1100 feet AGL
Clouds: broken clouds at 1100 feet AGL
broken clouds at 4600 feet AGL
Weather: -SHRA  (light rain showers)

METAR text: EKVG 181750Z AUTO 32019KT 9999NDV BKN010/// BKN046/// 04/02 Q0991 RMK BKN013/// WIND SKEID 33019KT
Conditions at: EKVG (SORVAAG/VAGAR , DK) observed 1750 UTC 18 February 2019
Temperature: 4.0°C (39°F)
Dewpoint: 2.0°C (36°F) [RH = 87%]
Pressure (altimeter): 29.26 inches Hg (991.0 mb)
Winds: from the NW (320 degrees) at 22 MPH (19 knots; 9.8 m/s)
Visibility: missing
Ceiling: 1000 feet AGL
Clouds: broken clouds at 1000 feet AGL
broken clouds at 4600 feet AGL
Weather: no significant weather observed at this time

METAR text: EKVG 181720Z AUTO 31017KT 9000NDV -SHRA SCT012/// SCT017/// 04/02 Q0991 RMK BKN014/// WIND SKEID 31021KT
Conditions at: EKVG (SORVAAG/VAGAR , DK) observed 1720 UTC 18 February 2019
Temperature: 4.0°C (39°F)
Dewpoint: 2.0°C (36°F) [RH = 87%]
Pressure (altimeter): 29.26 inches Hg (991.0 mb)
Winds: from the NW (310 degrees) at 20 MPH (17 knots; 8.7 m/s)
Visibility: missing
Ceiling: at least 12,000 feet AGL
Clouds: scattered clouds at 1200 feet AGL
scattered clouds at 1700 feet AGL
Weather: -SHRA  (light rain showers)

METAR text: EKVG 181650Z AUTO 31015KT 9999NDV -SHRA BKN015/// 04/02 Q0991 RMK BKN018/// WIND SKEID 31021G32KT
Conditions at: EKVG (SORVAAG/VAGAR , DK) observed 1650 UTC 18 February 2019
Temperature: 4.0°C (39°F)
Dewpoint: 2.0°C (36°F) [RH = 87%]
Pressure (altimeter): 29.26 inches Hg (991.0 mb)
Winds: from the NW (310 degrees) at 17 MPH (15 knots; 7.7 m/s)
Visibility: missing
Ceiling: 1500 feet AGL
Clouds: broken clouds at 1500 feet AGL
Weather: -SHRA  (light rain showers)

METAR text: EKVG 181620Z AUTO 31014KT 9999NDV -SHRA BKN018/// 04/03 Q0990 RMK BKN019/// WIND SKEID 30030G40KT
Conditions at: EKVG (SORVAAG/VAGAR , DK) observed 1620 UTC 18 February 2019
Temperature: 4.0°C (39°F)
Dewpoint: 3.0°C (37°F) [RH = 93%]
Pressure (altimeter): 29.23 inches Hg (990.0 mb)
Winds: from the NW (310 degrees) at 16 MPH (14 knots; 7.2 m/s)
Visibility: missing
Ceiling: 1800 feet AGL
Clouds: broken clouds at 1800 feet AGL
Weather: -SHRA  (light rain showers)

METAR text: EKVG 181550Z AUTO 32013KT 9999NDV -SHRA BKN017/// 05/03 Q0990 RMK BKN021/// WIND SKEID 30022G32KT
Conditions at: EKVG (SORVAAG/VAGAR , DK) observed 1550 UTC 18 February 2019
Temperature: 5.0°C (41°F)
Dewpoint: 3.0°C (37°F) [RH = 87%]
Pressure (altimeter): 29.23 inches Hg (990.0 mb)
Winds: from the NW (320 degrees) at 15 MPH (13 knots; 6.7 m/s)
Visibility: missing
Ceiling: 1700 feet AGL
Clouds: broken clouds at 1700 feet AGL
Weather: -SHRA  (light rain showers)

METAR text: EKVG 181520Z AUTO 32013KT 7000NDV -DZ BKN014/// 04/03 Q0990 RMK BKN018/// WIND SKEID 31021KT
Conditions at: EKVG (SORVAAG/VAGAR , DK) observed 1520 UTC 18 February 2019
Temperature: 4.0°C (39°F)
Dewpoint: 3.0°C (37°F) [RH = 93%]
Pressure (altimeter): 29.23 inches Hg (990.0 mb)
Winds: from the NW (320 degrees) at 15 MPH (13 knots; 6.7 m/s)
Visibility: missing
Ceiling: 1400 feet AGL
Clouds: broken clouds at 1400 feet AGL
Weather: -DZ  (light drizzle)

METAR text: EKVG 181450Z AUTO 32014KT 9999NDV BKN015/// 05/02 Q0990 RMK BKN015/// WIND SKEID 31022KT
Conditions at: EKVG (SORVAAG/VAGAR , DK) observed 1450 UTC 18 February 2019
Temperature: 5.0°C (41°F)
Dewpoint: 2.0°C (36°F) [RH = 81%]
Pressure (altimeter): 29.23 inches Hg (990.0 mb)
Winds: from the NW (320 degrees) at 16 MPH (14 knots; 7.2 m/s)
Visibility: missing
Ceiling: 1500 feet AGL
Clouds: broken clouds at 1500 feet AGL
Weather: no significant weather observed at this time

METAR text: EKVG 181420Z AUTO 32017KT 9999NDV BKN010/// 04/03 Q0990 RMK BKN013/// WIND SKEID 32020G31KT
Conditions at: EKVG (SORVAAG/VAGAR , DK) observed 1420 UTC 18 February 2019
Temperature: 4.0°C (39°F)
Dewpoint: 3.0°C (37°F) [RH = 93%]
Pressure (altimeter): 29.23 inches Hg (990.0 mb)
Winds: from the NW (320 degrees) at 20 MPH (17 knots; 8.7 m/s)
Visibility: missing
Ceiling: 1000 feet AGL
Clouds: broken clouds at 1000 feet AGL
Weather: no significant weather observed at this time

METAR text: EKVG 181350Z AUTO 32016KT 9999NDV -SHRA BKN010/// 04/03 Q0989 RMK BKN009/// WIND SKEID 33019KT
Conditions at: EKVG (SORVAAG/VAGAR , DK) observed 1350 UTC 18 February 2019
Temperature: 4.0°C (39°F)
Dewpoint: 3.0°C (37°F) [RH = 93%]
Pressure (altimeter): 29.20 inches Hg (989.0 mb)
Winds: from the NW (320 degrees) at 18 MPH (16 knots; 8.2 m/s)
Visibility: missing
Ceiling: 1000 feet AGL
Clouds: broken clouds at 1000 feet AGL
Weather: -SHRA  (light rain showers)

METAR text: EKVG 181320Z AUTO 33014KT 7000NDV -SHRA BKN008/// 05/03 Q0989 RMK BKN005/// WIND SKEID 32016KT
Conditions at: EKVG (SORVAAG/VAGAR , DK) observed 1320 UTC 18 February 2019
Temperature: 5.0°C (41°F)
Dewpoint: 3.0°C (37°F) [RH = 87%]
Pressure (altimeter): 29.20 inches Hg (989.0 mb)
Winds: from the NNW (330 degrees) at 16 MPH (14 knots; 7.2 m/s)
Visibility: missing
Ceiling: 800 feet AGL
Clouds: broken clouds at 800 feet AGL
Weather: -SHRA  (light rain showers)

METAR text: EKVG 181250Z AUTO 34018KT 5000NDV BKN008/// BKN026/// 05/04 Q0989 RMK BKN002/// WIND SKEID 33018KT
Conditions at: EKVG (SORVAAG/VAGAR , DK) observed 1250 UTC 18 February 2019
Temperature: 5.0°C (41°F)
Dewpoint: 4.0°C (39°F) [RH = 93%]
Pressure (altimeter): 29.20 inches Hg (989.0 mb)
Winds: from the NNW (340 degrees) at 21 MPH (18 knots; 9.3 m/s)
Visibility: missing
Ceiling: 800 feet AGL
Clouds: broken clouds at 800 feet AGL
broken clouds at 2600 feet AGL
Weather: no significant weather observed at this time

METAR text: EKVG 181220Z AUTO 33015KT 8000NDV OVC021/// 05/04 Q0988 RMK FEW002/// BKN016/// WIND SKEID 31013KT
Conditions at: EKVG (SORVAAG/VAGAR , DK) observed 1220 UTC 18 February 2019
Temperature: 5.0°C (41°F)
Dewpoint: 4.0°C (39°F) [RH = 93%]
Pressure (altimeter): 29.17 inches Hg (988.0 mb)
Winds: from the NNW (330 degrees) at 17 MPH (15 knots; 7.7 m/s)
Visibility: missing
Ceiling: 2100 feet AGL
Clouds: overcast cloud deck at 2100 feet AGL
Weather: no significant weather observed at this time

METAR text: EKVG 181150Z AUTO 32013KT 9999NDV BKN007/// 05/05 Q0988 RMK BKN011/// WIND SKEID 30017KT
Conditions at: EKVG (SORVAAG/VAGAR , DK) observed 1150 UTC 18 February 2019
Temperature: 5.0°C (41°F)
Dewpoint: 5.0°C (41°F) [RH = 100%]
Pressure (altimeter): 29.17 inches Hg (988.0 mb)
Winds: from the NW (320 degrees) at 15 MPH (13 knots; 6.7 m/s)
Visibility: missing
Ceiling: 700 feet AGL
Clouds: broken clouds at 700 feet AGL
Weather: no significant weather observed at this time

METAR text: EKVG 181120Z AUTO 29005KT 9999NDV -SHRA BKN008/// BKN030/// 06/06 Q0988 RMK BKN006/// BKN022/// WIND SKEID 30015KT
Conditions at: EKVG (SORVAAG/VAGAR , DK) observed 1120 UTC 18 February 2019
Temperature: 6.0°C (43°F)
Dewpoint: 6.0°C (43°F) [RH = 100%]
Pressure (altimeter): 29.17 inches Hg (988.0 mb)
Winds: from the WNW (290 degrees) at 6 MPH (5 knots; 2.6 m/s)
Visibility: missing
Ceiling: 800 feet AGL
Clouds: broken clouds at 800 feet AGL
broken clouds at 3000 feet AGL
Weather: -SHRA  (light rain showers)

METAR text: EKVG 181050Z AUTO 27002KT 9999NDV BKN011/// 06/05 Q0988 RMK BKN006/// BKN033/// WIND SKEID 30009KT
Conditions at: EKVG (SORVAAG/VAGAR , DK) observed 1050 UTC 18 February 2019
Temperature: 6.0°C (43°F)
Dewpoint: 5.0°C (41°F) [RH = 93%]
Pressure (altimeter): 29.17 inches Hg (988.0 mb)
Winds: from the W (270 degrees) at 2 MPH (2 knots; 1.0 m/s)
Visibility: missing
Ceiling: 1100 feet AGL
Clouds: broken clouds at 1100 feet AGL
Weather: no significant weather observed at this time

METAR text: EKVG 181020Z AUTO 00000KT 5000NDV DZ FEW012/// BKN028/// 06/05 Q0988 RMK BKN010/// WIND SKEID 30004KT 270V330
Conditions at: EKVG (SORVAAG/VAGAR , DK) observed 1020 UTC 18 February 2019
Temperature: 6.0°C (43°F)
Dewpoint: 5.0°C (41°F) [RH = 93%]
Pressure (altimeter): 29.17 inches Hg (988.0 mb)
Winds: calm
Visibility: missing
Ceiling: 2800 feet AGL
Clouds: few clouds at 1200 feet AGL
broken clouds at 2800 feet AGL
Weather: DZ  (moderate drizzle)

METAR text: EKVG 180950Z AUTO 36001KT 9999NDV FEW029/// BKN072/// 06/05 Q0988 RMK BKN014/// WIND SKEID 00000KT
Conditions at: EKVG (SORVAAG/VAGAR , DK) observed 0950 UTC 18 February 2019
Temperature: 6.0°C (43°F)
Dewpoint: 5.0°C (41°F) [RH = 93%]
Pressure (altimeter): 29.17 inches Hg (988.0 mb)
Winds: from the N (360 degrees) at 1 MPH (1 knots; 0.5 m/s)
Visibility: missing
Ceiling: 7200 feet AGL
Clouds: few clouds at 2900 feet AGL
broken clouds at 7200 feet AGL
Weather: no significant weather observed at this time

METAR text: EKVG 180920Z AUTO VRB02KT 9999NDV SCT029/// SCT071/// 06/05 Q0987 RMK FEW031/// BKN058/// WIND SKEID 30001KT
Conditions at: EKVG (SORVAAG/VAGAR , DK) observed 0920 UTC 18 February 2019
Temperature: 6.0°C (43°F)
Dewpoint: 5.0°C (41°F) [RH = 93%]
Pressure (altimeter): 29.14 inches Hg (987.0 mb)
Winds: variable direction winds at 2 MPH (2 knots; 1.0 m/s)
Visibility: missing
Ceiling: at least 12,000 feet AGL
Clouds: scattered clouds at 2900 feet AGL
scattered clouds at 7100 feet AGL
Weather: no significant weather observed at this time

METAR text: EKVG 180850Z AUTO 13002KT 9999NDV FEW014/// SCT032/// 06/05 Q0987 RMK FEW014/// BKN029/// WIND SKEID VRB01KT
Conditions at: EKVG (SORVAAG/VAGAR , DK) observed 0850 UTC 18 February 2019
Temperature: 6.0°C (43°F)
Dewpoint: 5.0°C (41°F) [RH = 93%]
Pressure (altimeter): 29.14 inches Hg (987.0 mb)
Winds: from the SE (130 degrees) at 2 MPH (2 knots; 1.0 m/s)
Visibility: missing
Ceiling: at least 12,000 feet AGL
Clouds: few clouds at 1400 feet AGL
scattered clouds at 3200 feet AGL
Weather: no significant weather observed at this time

METAR text: EKVG 180820Z AUTO 00000KT 9000NDV -SHRA SCT016/// BKN031/// 06/05 Q0987 RMK BKN011/// WIND SKEID 23007KT
Conditions at: EKVG (SORVAAG/VAGAR , DK) observed 0820 UTC 18 February 2019
Temperature: 6.0°C (43°F)
Dewpoint: 5.0°C (41°F) [RH = 93%]
Pressure (altimeter): 29.14 inches Hg (987.0 mb)
Winds: calm
Visibility: missing
Ceiling: 3100 feet AGL
Clouds: scattered clouds at 1600 feet AGL
broken clouds at 3100 feet AGL
Weather: -SHRA  (light rain showers)

METAR text: EKVG 180750Z AUTO 23005KT 9999NDV -SHRA BKN034/// 06/05 Q0987 RMK BKN006/// WIND SKEID 24006KT
Conditions at: EKVG (SORVAAG/VAGAR , DK) observed 0750 UTC 18 February 2019
Temperature: 6.0°C (43°F)
Dewpoint: 5.0°C (41°F) [RH = 93%]
Pressure (altimeter): 29.14 inches Hg (987.0 mb)
Winds: from the SW (230 degrees) at 6 MPH (5 knots; 2.6 m/s)
Visibility: missing
Ceiling: 3400 feet AGL
Clouds: broken clouds at 3400 feet AGL
Weather: -SHRA  (light rain showers)

METAR text: EKVG 180720Z AUTO 20002KT 7000NDV -SHRA BKN015/// 06/05 Q0987 RMK BKN009/// WIND SKEID 22009KT
Conditions at: EKVG (SORVAAG/VAGAR , DK) observed 0720 UTC 18 February 2019
Temperature: 6.0°C (43°F)
Dewpoint: 5.0°C (41°F) [RH = 93%]
Pressure (altimeter): 29.14 inches Hg (987.0 mb)
Winds: from the SSW (200 degrees) at 2 MPH (2 knots; 1.0 m/s)
Visibility: missing
Ceiling: 1500 feet AGL
Clouds: broken clouds at 1500 feet AGL
Weather: -SHRA  (light rain showers)

METAR text: EKVG 180650Z AUTO 22004KT 190V290 9000NDV DZ BKN010/// 06/05 Q0987 RMK BKN014/// WIND SKEID 22007KT
Conditions at: EKVG (SORVAAG/VAGAR , DK) observed 0650 UTC 18 February 2019
Temperature: 6.0°C (43°F)
Dewpoint: 5.0°C (41°F) [RH = 93%]
Pressure (altimeter): 29.14 inches Hg (987.0 mb)
Winds: from the SW (220 degrees) at 5 MPH (4 knots; 2.1 m/s)
Visibility: missing
Ceiling: 1000 feet AGL
Clouds: broken clouds at 1000 feet AGL
Weather: DZ  (moderate drizzle)

METAR text: EKVG 180620Z AUTO 18006KT 9999NDV OVC010/// 06/05 Q0987 RMK SCT016/// BKN030/// BKN039/// WIND SKEID VRB02KT
Conditions at: EKVG (SORVAAG/VAGAR , DK) observed 0620 UTC 18 February 2019
Temperature: 6.0°C (43°F)
Dewpoint: 5.0°C (41°F) [RH = 93%]
Pressure (altimeter): 29.14 inches Hg (987.0 mb)
Winds: from the S (180 degrees) at 7 MPH (6 knots; 3.1 m/s)
Visibility: missing
Ceiling: 1000 feet AGL
Clouds: overcast cloud deck at 1000 feet AGL
Weather: no significant weather observed at this time

METAR text: EKVG 180550Z AUTO 17006KT 9999NDV BKN009/// 06/05 Q0987
Conditions at: EKVG (SORVAAG/VAGAR , DK) observed 0550 UTC 18 February 2019
Temperature: 6.0°C (43°F)
Dewpoint: 5.0°C (41°F) [RH = 93%]
Pressure (altimeter): 29.14 inches Hg (987.0 mb)
Winds: from the S (170 degrees) at 7 MPH (6 knots; 3.1 m/s)
Visibility: missing
Ceiling: 900 feet AGL
Clouds: broken clouds at 900 feet AGL
Weather: no significant weather observed at this time

METAR text: EKVG 180520Z AUTO 18007KT 9999NDV BKN007/// 06/05 Q0987 RMK SCT008/// WIND SKEID VRB04KT
Conditions at: EKVG (SORVAAG/VAGAR , DK) observed 0520 UTC 18 February 2019
Temperature: 6.0°C (43°F)
Dewpoint: 5.0°C (41°F) [RH = 93%]
Pressure (altimeter): 29.14 inches Hg (987.0 mb)
Winds: from the S (180 degrees) at 8 MPH (7 knots; 3.6 m/s)
Visibility: missing
Ceiling: 700 feet AGL
Clouds: broken clouds at 700 feet AGL
Weather: no significant weather observed at this time

METAR text: EKVG 180450Z AUTO 17006KT 9999NDV OVC008/// 06/05 Q0987 RMK BKN010/// WIND SKEID VRB03KT
Conditions at: EKVG (SORVAAG/VAGAR , DK) observed 0450 UTC 18 February 2019
Temperature: 6.0°C (43°F)
Dewpoint: 5.0°C (41°F) [RH = 93%]
Pressure (altimeter): 29.14 inches Hg (987.0 mb)
Winds: from the S (170 degrees) at 7 MPH (6 knots; 3.1 m/s)
Visibility: missing
Ceiling: 800 feet AGL
Clouds: overcast cloud deck at 800 feet AGL
Weather: no significant weather observed at this time

METAR text: EKVG 180420Z AUTO 17008KT 9999NDV BKN010/// 06/05 Q0987 RMK BKN013/// BKN033/// WIND SKEID VRB02G13KT
Conditions at: EKVG (SORVAAG/VAGAR , DK) observed 0420 UTC 18 February 2019
Temperature: 6.0°C (43°F)
Dewpoint: 5.0°C (41°F) [RH = 93%]
Pressure (altimeter): 29.14 inches Hg (987.0 mb)
Winds: from the S (170 degrees) at 9 MPH (8 knots; 4.1 m/s)
Visibility: missing
Ceiling: 1000 feet AGL
Clouds: broken clouds at 1000 feet AGL
Weather: no significant weather observed at this time

METAR text: EKVG 180350Z AUTO 17012KT 9999NDV BKN007/// BKN024/// 06/05 Q0987 RMK FEW008/// BKN027/// WIND SKEID 17011G21KT 130V230
Conditions at: EKVG (SORVAAG/VAGAR , DK) observed 0350 UTC 18 February 2019
Temperature: 6.0°C (43°F)
Dewpoint: 5.0°C (41°F) [RH = 93%]
Pressure (altimeter): 29.14 inches Hg (987.0 mb)
Winds: from the S (170 degrees) at 14 MPH (12 knots; 6.2 m/s)
Visibility: missing
Ceiling: 700 feet AGL
Clouds: broken clouds at 700 feet AGL
broken clouds at 2400 feet AGL
Weather: no significant weather observed at this time

METAR text: EKVG 180320Z AUTO 17012KT 9999NDV BKN013/// 06/05 Q0987 RMK FEW009/// FEW022/// SCT036/// WIND SKEID 15012G24KT 110V190
Conditions at: EKVG (SORVAAG/VAGAR , DK) observed 0320 UTC 18 February 2019
Temperature: 6.0°C (43°F)
Dewpoint: 5.0°C (41°F) [RH = 93%]
Pressure (altimeter): 29.14 inches Hg (987.0 mb)
Winds: from the S (170 degrees) at 14 MPH (12 knots; 6.2 m/s)
Visibility: missing
Ceiling: 1300 feet AGL
Clouds: broken clouds at 1300 feet AGL
Weather: no significant weather observed at this time

METAR text: EKVG 180250Z AUTO 17013KT 9999NDV BKN009/// 06/05 Q0988 RMK BKN011/// WIND SKEID 15016KT
Conditions at: EKVG (SORVAAG/VAGAR , DK) observed 0250 UTC 18 February 2019
Temperature: 6.0°C (43°F)
Dewpoint: 5.0°C (41°F) [RH = 93%]
Pressure (altimeter): 29.17 inches Hg (988.0 mb)
Winds: from the S (170 degrees) at 15 MPH (13 knots; 6.7 m/s)
Visibility: missing
Ceiling: 900 feet AGL
Clouds: broken clouds at 900 feet AGL
Weather: no significant weather observed at this time

METAR text: EKVG 180220Z AUTO 17012KT 9999NDV SCT017/// BKN033/// 06/05 Q0988 RMK SCT034/// BKN140/// WIND SKEID 17017KT
Conditions at: EKVG (SORVAAG/VAGAR , DK) observed 0220 UTC 18 February 2019
Temperature: 6.0°C (43°F)
Dewpoint: 5.0°C (41°F) [RH = 93%]
Pressure (altimeter): 29.17 inches Hg (988.0 mb)
Winds: from the S (170 degrees) at 14 MPH (12 knots; 6.2 m/s)
Visibility: missing
Ceiling: 3300 feet AGL
Clouds: scattered clouds at 1700 feet AGL
broken clouds at 3300 feet AGL
Weather: no significant weather observed at this time

METAR text: EKVG 180150Z AUTO 16010KT 9999NDV SCT010/// SCT019/// SCT034/// 06/05 Q0988 RMK SCT011/// SCT012/// WIND SKEID 15016KT
Conditions at: EKVG (SORVAAG/VAGAR , DK) observed 0150 UTC 18 February 2019
Temperature: 6.0°C (43°F)
Dewpoint: 5.0°C (41°F) [RH = 93%]
Pressure (altimeter): 29.17 inches Hg (988.0 mb)
Winds: from the SSE (160 degrees) at 12 MPH (10 knots; 5.1 m/s)
Visibility: missing
Ceiling: at least 12,000 feet AGL
Clouds: scattered clouds at 1000 feet AGL
scattered clouds at 1900 feet AGL
scattered clouds at 3400 feet AGL
Weather: no significant weather observed at this time

METAR text: EKVG 180120Z AUTO 17011KT 9999NDV BKN014/// BKN040/// 07/05 Q0988 RMK BKN016/// BKN029/// WIND SKEID 17017G27KT 140V210
Conditions at: EKVG (SORVAAG/VAGAR , DK) observed 0120 UTC 18 February 2019
Temperature: 7.0°C (45°F)
Dewpoint: 5.0°C (41°F) [RH = 87%]
Pressure (altimeter): 29.17 inches Hg (988.0 mb)
Winds: from the S (170 degrees) at 13 MPH (11 knots; 5.7 m/s)
Visibility: missing
Ceiling: 1400 feet AGL
Clouds: broken clouds at 1400 feet AGL
broken clouds at 4000 feet AGL
Weather: no significant weather observed at this time

METAR text: EKVG 180050Z AUTO 16011KT 9999NDV BKN014/// 07/05 Q0989 RMK SCT011/// BKN028/// BKN039/// WIND SKEID 15017KT
Conditions at: EKVG (SORVAAG/VAGAR , DK) observed 0050 UTC 18 February 2019
Temperature: 7.0°C (45°F)
Dewpoint: 5.0°C (41°F) [RH = 87%]
Pressure (altimeter): 29.20 inches Hg (989.0 mb)
Winds: from the SSE (160 degrees) at 13 MPH (11 knots; 5.7 m/s)
Visibility: missing
Ceiling: 1400 feet AGL
Clouds: broken clouds at 1400 feet AGL
Weather: no significant weather observed at this time

METAR text: EKVG 180020Z AUTO 16008KT 9999NDV BKN012/// 06/05 Q0989 RMK FEW013/// WIND SKEID 16012KT 100V230
Conditions at: EKVG (SORVAAG/VAGAR , DK) observed 0020 UTC 18 February 2019
Temperature: 6.0°C (43°F)
Dewpoint: 5.0°C (41°F) [RH = 93%]
Pressure (altimeter): 29.20 inches Hg (989.0 mb)
Winds: from the SSE (160 degrees) at 9 MPH (8 knots; 4.1 m/s)
Visibility: missing
Ceiling: 1200 feet AGL
Clouds: broken clouds at 1200 feet AGL
Weather: no significant weather observed at this time

METAR text: EKVG 172350Z AUTO 19008KT 9999NDV SCT013/// 06/05 Q0989 RMK NCD WIND SKEID VRB05G15KT
Conditions at: EKVG (SORVAAG/VAGAR , DK) observed 2350 UTC 17 February 2019
Temperature: 6.0°C (43°F)
Dewpoint: 5.0°C (41°F) [RH = 93%]
Pressure (altimeter): 29.20 inches Hg (989.0 mb)
Winds: from the S (190 degrees) at 9 MPH (8 knots; 4.1 m/s)
Visibility: missing
Ceiling: at least 12,000 feet AGL
Clouds: scattered clouds at 1300 feet AGL
Weather: no significant weather observed at this time

METAR text: EKVG 172320Z AUTO 20009KT 9999NDV BKN013/// 06/05 Q0989 RMK NCD WIND SKEID VRB08G20KT
Conditions at: EKVG (SORVAAG/VAGAR , DK) observed 2320 UTC 17 February 2019
Temperature: 6.0°C (43°F)
Dewpoint: 5.0°C (41°F) [RH = 93%]
Pressure (altimeter): 29.20 inches Hg (989.0 mb)
Winds: from the SSW (200 degrees) at 10 MPH (9 knots; 4.6 m/s)
Visibility: missing
Ceiling: 1300 feet AGL
Clouds: broken clouds at 1300 feet AGL
Weather: no significant weather observed at this time

METAR text: EKVG 172250Z AUTO 20007KT 9000NDV BKN012/// 06/05 Q0989 RMK NCD WIND SKEID VRB07G21KT
Conditions at: EKVG (SORVAAG/VAGAR , DK) observed 2250 UTC 17 February 2019
Temperature: 6.0°C (43°F)
Dewpoint: 5.0°C (41°F) [RH = 93%]
Pressure (altimeter): 29.20 inches Hg (989.0 mb)
Winds: from the SSW (200 degrees) at 8 MPH (7 knots; 3.6 m/s)
Visibility: missing
Ceiling: 1200 feet AGL
Clouds: broken clouds at 1200 feet AGL
Weather: no significant weather observed at this time

METAR text: EKVG 172220Z AUTO 21013KT 9999NDV BKN011/// 07/05 Q0989 RMK NCD WIND SKEID VRB13G29KT
Conditions at: EKVG (SORVAAG/VAGAR , DK) observed 2220 UTC 17 February 2019
Temperature: 7.0°C (45°F)
Dewpoint: 5.0°C (41°F) [RH = 87%]
Pressure (altimeter): 29.20 inches Hg (989.0 mb)
Winds: from the SSW (210 degrees) at 15 MPH (13 knots; 6.7 m/s)
Visibility: missing
Ceiling: 1100 feet AGL
Clouds: broken clouds at 1100 feet AGL
Weather: no significant weather observed at this time

METAR text: EKVG 172150Z AUTO 20012KT 170V230 9999NDV OVC010/// 07/06 Q0989 RMK BKN016/// WIND SKEID VRB12G31KT
Conditions at: EKVG (SORVAAG/VAGAR , DK) observed 2150 UTC 17 February 2019
Temperature: 7.0°C (45°F)
Dewpoint: 6.0°C (43°F) [RH = 93%]
Pressure (altimeter): 29.20 inches Hg (989.0 mb)
Winds: from the SSW (200 degrees) at 14 MPH (12 knots; 6.2 m/s)
Visibility: missing
Ceiling: 1000 feet AGL
Clouds: overcast cloud deck at 1000 feet AGL
Weather: no significant weather observed at this time

METAR text: EKVG 172120Z AUTO 19009KT 9999NDV OVC011/// 07/06 Q0989 RMK BKN017/// WIND SKEID 22012G27KT 120V280
Conditions at: EKVG (SORVAAG/VAGAR , DK) observed 2120 UTC 17 February 2019
Temperature: 7.0°C (45°F)
Dewpoint: 6.0°C (43°F) [RH = 93%]
Pressure (altimeter): 29.20 inches Hg (989.0 mb)
Winds: from the S (190 degrees) at 10 MPH (9 knots; 4.6 m/s)
Visibility: missing
Ceiling: 1100 feet AGL
Clouds: overcast cloud deck at 1100 feet AGL
Weather: no significant weather observed at this time

METAR text: EKVG 172050Z AUTO 19011KT 9999NDV -SHRA OVC011/// 07/06 Q0988 RMK BKN015/// WIND SKEID VRB08G29KT
Conditions at: EKVG (SORVAAG/VAGAR , DK) observed 2050 UTC 17 February 2019
Temperature: 7.0°C (45°F)
Dewpoint: 6.0°C (43°F) [RH = 93%]
Pressure (altimeter): 29.17 inches Hg (988.0 mb)
Winds: from the S (190 degrees) at 13 MPH (11 knots; 5.7 m/s)
Visibility: missing
Ceiling: 1100 feet AGL
Clouds: overcast cloud deck at 1100 feet AGL
Weather: -SHRA  (light rain showers)

METAR text: EKVG 172020Z AUTO 21011KT 9999NDV OVC013/// 07/05 Q0988 RMK OVC016/// WIND SKEID VRB14G32KT
Conditions at: EKVG (SORVAAG/VAGAR , DK) observed 2020 UTC 17 February 2019
Temperature: 7.0°C (45°F)
Dewpoint: 5.0°C (41°F) [RH = 87%]
Pressure (altimeter): 29.17 inches Hg (988.0 mb)
Winds: from the SSW (210 degrees) at 13 MPH (11 knots; 5.7 m/s)
Visibility: missing
Ceiling: 1300 feet AGL
Clouds: overcast cloud deck at 1300 feet AGL
Weather: no significant weather observed at this time

METAR text: EKVG 171950Z AUTO 21011KT 9999NDV DZ OVC010/// 07/06 Q0988 RMK SCT009/// BKN025/// WIND SKEID VRB14G30KT
Conditions at: EKVG (SORVAAG/VAGAR , DK) observed 1950 UTC 17 February 2019
Temperature: 7.0°C (45°F)
Dewpoint: 6.0°C (43°F) [RH = 93%]
Pressure (altimeter): 29.17 inches Hg (988.0 mb)
Winds: from the SSW (210 degrees) at 13 MPH (11 knots; 5.7 m/s)
Visibility: missing
Ceiling: 1000 feet AGL
Clouds: overcast cloud deck at 1000 feet AGL
Weather: DZ  (moderate drizzle)

METAR text: EKVG 171920Z AUTO 19007KT 9999NDV OVC008/// 07/06 Q0988 RMK BKN008/// WIND SKEID 20013G24KT 150V240
Conditions at: EKVG (SORVAAG/VAGAR , DK) observed 1920 UTC 17 February 2019
Temperature: 7.0°C (45°F)
Dewpoint: 6.0°C (43°F) [RH = 93%]
Pressure (altimeter): 29.17 inches Hg (988.0 mb)
Winds: from the S (190 degrees) at 8 MPH (7 knots; 3.6 m/s)
Visibility: missing
Ceiling: 800 feet AGL
Clouds: overcast cloud deck at 800 feet AGL
Weather: no significant weather observed at this time

METAR text: EKVG 171850Z AUTO 16007KT 9999NDV OVC010/// 07/06 Q0988 RMK SCT011/// BKN022/// WIND SKEID VRB07KT
Conditions at: EKVG (SORVAAG/VAGAR , DK) observed 1850 UTC 17 February 2019
Temperature: 7.0°C (45°F)
Dewpoint: 6.0°C (43°F) [RH = 93%]
Pressure (altimeter): 29.17 inches Hg (988.0 mb)
Winds: from the SSE (160 degrees) at 8 MPH (7 knots; 3.6 m/s)
Visibility: missing
Ceiling: 1000 feet AGL
Clouds: overcast cloud deck at 1000 feet AGL
Weather: no significant weather observed at this time

METAR text: EKVG 171820Z AUTO 21006KT 9999NDV BKN008/// 07/06 Q0988 RMK SCT010/// BKN036/// WIND SKEID 21010KT 160V280
Conditions at: EKVG (SORVAAG/VAGAR , DK) observed 1820 UTC 17 February 2019
Temperature: 7.0°C (45°F)
Dewpoint: 6.0°C (43°F) [RH = 93%]
Pressure (altimeter): 29.17 inches Hg (988.0 mb)
Winds: from the SSW (210 degrees) at 7 MPH (6 knots; 3.1 m/s)
Visibility: missing
Ceiling: 800 feet AGL
Clouds: broken clouds at 800 feet AGL
Weather: no significant weather observed at this time

METAR text: EKVG 171750Z AUTO 19011KT 9999NDV -DZ OVC006/// 07/07 Q0988 RMK BKN007/// WIND SKEID 20011G21KT 140V250
Conditions at: EKVG (SORVAAG/VAGAR , DK) observed 1750 UTC 17 February 2019
Temperature: 7.0°C (45°F)
Dewpoint: 7.0°C (45°F) [RH = 100%]
Pressure (altimeter): 29.17 inches Hg (988.0 mb)
Winds: from the S (190 degrees) at 13 MPH (11 knots; 5.7 m/s)
Visibility: missing
Ceiling: 600 feet AGL
Clouds: overcast cloud deck at 600 feet AGL
Weather: -DZ  (light drizzle)

Forecast for: EKVG (SORVAAG/VAGAR , DK)
Text: TAF EKVG 190525Z 1906/1915 34018KT 9999 BKN020
Forecast period: 0600 to 1000 UTC 19 February 2019
Forecast type: FROM: standard forecast or significant change
Winds: from the NNW (340 degrees) at 21 MPH (18 knots; 9.3 m/s)
Visibility: 6 or more miles 10+ km)
Ceiling: 2000 feet AGL
Clouds: broken clouds at 2000 feet AGL
Weather: no significant weather forecast for this period
Text: BECMG 1910/1912 09008KT
Forecast period: 1000 to 1500 UTC 19 February 2019
Forecast type: BECOMING: Conditions expected to become as follows by 1200 UTC 19 February 2019
Winds: from the E (90 degrees) at 9 MPH (8 knots; 4.1 m/s)
Visibility: 6 or more miles 10+ km)
Ceiling: 2000 feet AGL
Clouds: broken clouds at 2000 feet AGL
Weather: no significant weather forecast for this period